Time;durP1;ratioP1;P1;durP2;ratioP2;P2;SDS_P1;SDS_P2;PMS_P1;PMS_P2;Temp;Humidity;BMP_temperature;BMP_pressure;BME280_temperature;BME280_humidity;BME280_pressure;Samples;Min_cycle;Max_cycle;Signal;HPM_P1;HPM_P2
2022/01/24 00:01:06;;;;;;;6.30;4.90;;;6.10;99.90;;;;;;5080234;28;20208;-53
2022/01/24 00:03:33;;;;;;;6.00;5.40;;;6.00;99.90;;;;;;5036914;28;20262;-53
2022/01/24 00:06:00;;;;;;;8.00;5.10;;;6.10;99.90;;;;;;5072088;28;20272;-53
2022/01/24 00:08:28;;;;;;;6.87;5.63;;;6.10;99.90;;;;;;5068666;28;20196;-53
2022/01/24 00:10:55;;;;;;;8.23;5.50;;;6.00;99.90;;;;;;5082911;28;20430;-55
2022/01/24 00:16:21;;;;;;;8.00;4.87;;;6.10;99.90;;;;;;5079824;28;20229;-53
2022/01/24 00:27:18;;;;;;;6.87;5.37;;;6.00;99.90;;;;;;5045638;28;20773;-53
2022/01/24 00:29:46;;;;;;;6.67;5.57;;;6.00;99.90;;;;;;5074832;28;20200;-53
2022/01/24 00:32:13;;;;;;;6.97;5.30;;;6.00;99.90;;;;;;5086880;28;20530;-52
2022/01/24 00:34:40;;;;;;;6.77;5.67;;;6.00;99.90;;;;;;5047454;28;20233;-53
2022/01/24 00:37:07;;;;;;;7.30;5.60;;;6.00;99.90;;;;;;5072415;28;20406;-53
2022/01/24 00:39:35;;;;;;;8.10;5.50;;;6.00;99.90;;;;;;5069303;28;20201;-53
2022/01/24 00:42:16;;;;;;;8.67;5.87;;;6.00;99.90;;;;;;5066015;28;20203;-53
2022/01/24 00:44:49;;;;;;;7.40;5.47;;;6.00;99.90;;;;;;5068376;28;20197;-53
2022/01/24 00:47:24;;;;;;;7.07;5.73;;;6.00;99.90;;;;;;5073967;28;20207;-53
2022/01/24 00:55:23;;;;;;;9.13;5.47;;;6.00;99.90;;;;;;5065973;28;20226;-53
2022/01/24 00:57:50;;;;;;;7.57;6.07;;;6.10;99.90;;;;;;5077751;28;20204;-53
2022/01/24 01:00:17;;;;;;;7.83;6.60;;;6.00;99.90;;;;;;5069505;28;20411;-53
2022/01/24 01:02:45;;;;;;;9.30;6.43;;;6.00;99.90;;;;;;5073216;28;20230;-49
2022/01/24 01:05:28;;;;;;;9.23;7.17;;;6.00;99.90;;;;;;5053757;28;20204;-49
2022/01/24 01:08:01;;;;;;;8.47;6.37;;;6.00;99.90;;;;;;5073187;28;20201;-49
2022/01/24 01:18:43;;;;;;;10.30;6.90;;;6.00;99.90;;;;;;5080696;28;20513;-49
2022/01/24 01:21:12;;;;;;;9.97;6.80;;;6.00;99.90;;;;;;5060716;28;20219;-49
2022/01/24 01:23:43;;;;;;;9.30;7.27;;;6.00;99.90;;;;;;5075259;28;20235;-49
2022/01/24 01:26:19;;;;;;;13.00;7.90;;;6.00;99.90;;;;;;5073755;28;20328;-49
2022/01/24 01:28:49;;;;;;;10.17;7.57;;;6.00;99.90;;;;;;5081233;28;20255;-49
2022/01/24 01:31:25;;;;;;;10.23;7.27;;;6.00;99.90;;;;;;5069875;28;20275;-49
2022/01/24 01:34:03;;;;;;;9.73;7.07;;;5.90;99.90;;;;;;5074281;28;20225;-46
2022/01/24 01:36:57;;;;;;;10.60;7.17;;;6.00;99.90;;;;;;5060940;28;20214;-46
2022/01/24 01:39:46;;;;;;;9.70;7.67;;;6.00;99.90;;;;;;5084764;28;20671;-46
2022/01/24 01:53:31;;;;;;;10.83;8.50;;;5.90;99.90;;;;;;5074386;28;20232;-49
2022/01/24 01:55:58;;;;;;;11.07;7.83;;;5.90;99.90;;;;;;5062870;28;20249;-49
2022/01/24 01:58:25;;;;;;;10.60;7.27;;;5.90;99.90;;;;;;5085949;28;20247;-49
2022/01/24 02:00:55;;;;;;;11.30;7.57;;;5.90;99.90;;;;;;5074158;28;20215;-49
2022/01/24 02:03:23;;;;;;;11.77;8.23;;;5.90;99.90;;;;;;5058429;28;20226;-49
2022/01/24 02:05:51;;;;;;;11.10;7.83;;;5.80;99.90;;;;;;5065875;28;20329;-49
2022/01/24 02:08:22;;;;;;;10.50;7.23;;;5.90;99.90;;;;;;5076382;28;20277;-50
2022/01/24 02:10:48;;;;;;;9.47;7.67;;;5.90;99.90;;;;;;5087365;28;20282;-49
2022/01/24 02:13:15;;;;;;;12.80;6.87;;;5.90;99.90;;;;;;5066569;28;20253;-49
2022/01/24 02:15:50;;;;;;;10.03;7.40;;;5.90;99.90;;;;;;5081039;28;20301;-49
2022/01/24 02:18:28;;;;;;;10.13;7.50;;;5.90;99.90;;;;;;5067448;28;20199;-49
2022/01/24 02:21:11;;;;;;;12.97;7.70;;;5.90;99.90;;;;;;5062808;28;20215;-49
2022/01/24 02:23:43;;;;;;;9.43;7.33;;;5.90;99.90;;;;;;5074427;28;20229;-49
2022/01/24 02:26:15;;;;;;;10.63;6.87;;;5.90;99.90;;;;;;5083023;28;20203;-49
2022/01/24 02:28:53;;;;;;;10.93;7.60;;;5.90;99.90;;;;;;5065837;28;20249;-49
2022/01/24 02:31:37;;;;;;;10.80;8.37;;;5.90;99.90;;;;;;5074459;28;20200;-49
2022/01/24 02:34:06;;;;;;;12.83;8.70;;;5.90;99.90;;;;;;5069548;28;20222;-53
2022/01/24 02:36:33;;;;;;;13.43;9.27;;;5.90;99.90;;;;;;5068900;28;20212;-54
2022/01/24 02:39:17;;;;;;;15.60;10.40;;;5.90;99.90;;;;;;5074549;28;20482;-53
2022/01/24 02:49:57;;;;;;;20.30;12.97;;;5.80;99.90;;;;;;5073620;28;20314;-49
2022/01/24 02:52:26;;;;;;;22.13;14.10;;;5.80;99.90;;;;;;5064313;28;20239;-49
2022/01/24 02:54:54;;;;;;;19.40;13.73;;;5.80;99.90;;;;;;5073334;28;20413;-49
2022/01/24 02:57:21;;;;;;;23.53;14.40;;;5.80;99.90;;;;;;5087054;28;20582;-50
2022/01/24 02:59:48;;;;;;;20.83;13.60;;;5.80;99.90;;;;;;5066453;28;20216;-49
2022/01/24 03:02:15;;;;;;;21.03;13.73;;;5.80;99.90;;;;;;5075718;28;20219;-50
2022/01/24 03:04:41;;;;;;;22.73;13.90;;;5.80;99.90;;;;;;5074472;28;20198;-50
2022/01/24 03:07:08;;;;;;;23.73;14.30;;;5.80;99.90;;;;;;5064544;28;20209;-50
2022/01/24 03:09:36;;;;;;;25.60;14.57;;;5.80;99.90;;;;;;5082750;28;20227;-49
2022/01/24 03:12:08;;;;;;;22.03;14.37;;;5.80;99.90;;;;;;5070284;28;20216;-50
2022/01/24 03:14:37;;;;;;;23.27;14.13;;;5.80;99.90;;;;;;5068224;28;20224;-50
2022/01/24 03:17:06;;;;;;;21.53;13.63;;;5.80;99.90;;;;;;5071618;28;20200;-49
2022/01/24 03:19:33;;;;;;;25.20;15.60;;;5.80;99.90;;;;;;5076100;28;20253;-50
2022/01/24 03:22:00;;;;;;;22.17;14.57;;;5.80;99.90;;;;;;5068926;28;20238;-50
2022/01/24 03:24:27;;;;;;;22.63;15.07;;;5.80;99.90;;;;;;5083306;28;20318;-49
2022/01/24 03:26:54;;;;;;;26.40;15.67;;;5.80;99.90;;;;;;5068231;28;20230;-49
2022/01/24 03:29:22;;;;;;;26.87;16.43;;;5.80;99.90;;;;;;5056636;28;20204;-49
2022/01/24 03:31:49;;;;;;;27.20;15.90;;;5.80;99.90;;;;;;5080155;28;20232;-49
2022/01/24 03:34:16;;;;;;;26.53;16.67;;;5.80;99.90;;;;;;5068934;28;20225;-50
2022/01/24 03:36:44;;;;;;;29.97;16.60;;;5.80;99.90;;;;;;5075501;28;20204;-49
2022/01/24 03:39:11;;;;;;;28.13;16.57;;;5.80;99.90;;;;;;5063845;28;20212;-49
2022/01/24 03:41:40;;;;;;;26.53;16.67;;;5.80;99.90;;;;;;5067075;28;20222;-50
2022/01/24 03:44:08;;;;;;;23.83;15.93;;;5.70;99.90;;;;;;5068455;28;20252;-49
2022/01/24 03:47:00;;;;;;;27.77;16.10;;;5.70;99.90;;;;;;5067675;28;20547;-49
2022/01/24 03:49:46;;;;;;;27.07;16.03;;;5.80;99.90;;;;;;5072420;28;20221;-49
2022/01/24 03:52:13;;;;;;;27.03;16.00;;;5.80;99.90;;;;;;5077414;28;20210;-49
2022/01/24 03:54:43;;;;;;;29.47;17.37;;;5.70;99.90;;;;;;5056878;28;20525;-49
2022/01/24 03:57:11;;;;;;;22.67;14.80;;;5.70;99.90;;;;;;5059104;28;20242;-49
2022/01/24 03:59:38;;;;;;;24.17;16.37;;;5.70;99.90;;;;;;5073050;28;20204;-49
2022/01/24 04:02:07;;;;;;;28.97;16.90;;;5.70;99.90;;;;;;5066581;28;20286;-50
2022/01/24 04:04:33;;;;;;;29.53;16.57;;;5.70;99.90;;;;;;5077944;28;20358;-49
2022/01/24 04:07:00;;;;;;;25.63;16.37;;;5.80;99.90;;;;;;5077688;28;20213;-49
2022/01/24 04:09:27;;;;;;;27.43;16.97;;;5.70;99.90;;;;;;5060818;28;20217;-50
2022/01/24 04:11:57;;;;;;;28.43;16.07;;;5.70;99.90;;;;;;5059703;28;20319;-50
2022/01/24 04:14:30;;;;;;;31.60;18.20;;;5.70;99.90;;;;;;5081628;28;20222;-49
2022/01/24 04:17:09;;;;;;;25.43;16.43;;;5.80;99.90;;;;;;5063642;28;20652;-49
2022/01/24 04:22:29;;;;;;;30.00;18.47;;;5.70;99.90;;;;;;5074651;28;20333;-49
2022/01/24 04:25:00;;;;;;;31.33;18.57;;;5.70;99.90;;;;;;5063488;28;20196;-50
2022/01/24 04:27:28;;;;;;;33.93;18.27;;;5.70;99.90;;;;;;5070624;28;20919;-49
2022/01/24 04:29:55;;;;;;;30.23;16.97;;;5.70;99.90;;;;;;5070176;28;20281;-50
2022/01/24 04:32:23;;;;;;;29.77;17.53;;;5.70;99.90;;;;;;5048939;28;20214;-50
2022/01/24 04:34:53;;;;;;;35.07;18.53;;;5.70;99.90;;;;;;5077777;28;21452;-49
2022/01/24 04:37:20;;;;;;;31.10;18.70;;;5.70;99.90;;;;;;5068058;28;20432;-49
2022/01/24 04:39:47;;;;;;;32.87;19.83;;;5.70;99.90;;;;;;5055715;28;20204;-49
2022/01/24 04:42:22;;;;;;;28.67;18.10;;;5.70;99.90;;;;;;5059047;28;20208;-50
2022/01/24 04:45:06;;;;;;;31.77;19.03;;;5.70;99.90;;;;;;5065685;28;20202;-49
2022/01/24 04:47:47;;;;;;;34.10;18.07;;;5.70;99.90;;;;;;5072342;28;20523;-49
2022/01/24 04:50:40;;;;;;;34.63;20.40;;;5.70;99.90;;;;;;5063910;28;20780;-49
2022/01/24 04:53:15;;;;;;;29.07;18.90;;;5.70;99.90;;;;;;5067894;28;20271;-50
2022/01/24 04:55:42;;;;;;;33.70;19.90;;;5.70;99.90;;;;;;5062493;28;20220;-50
2022/01/24 04:58:08;;;;;;;34.13;20.37;;;5.70;99.90;;;;;;5058352;28;20215;-49
2022/01/24 05:00:35;;;;;;;35.93;19.60;;;5.70;99.90;;;;;;5053345;28;20206;-49
2022/01/24 05:03:02;;;;;;;36.50;20.03;;;5.70;99.90;;;;;;5076614;28;21137;-49
2022/01/24 05:05:31;;;;;;;33.77;19.47;;;5.80;99.90;;;;;;5060774;28;20243;-49
2022/01/24 05:07:59;;;;;;;31.77;19.37;;;5.70;99.90;;;;;;5081145;28;20204;-49
2022/01/24 05:10:38;;;;;;;33.63;19.20;;;5.70;99.90;;;;;;5056556;28;20216;-49
2022/01/24 05:21:43;;;;;;;29.70;17.57;;;5.80;99.90;;;;;;5069306;28;20655;-50
2022/01/24 05:24:09;;;;;;;30.63;17.53;;;5.70;99.90;;;;;;5062499;28;20267;-49
2022/01/24 05:26:36;;;;;;;30.73;18.40;;;5.80;99.90;;;;;;5048081;28;20205;-49
2022/01/24 05:29:03;;;;;;;35.50;18.87;;;5.70;99.90;;;;;;5070651;28;20615;-49
2022/01/24 05:31:29;;;;;;;31.43;18.23;;;5.70;99.90;;;;;;5061680;28;20488;-49
2022/01/24 05:33:56;;;;;;;32.90;18.20;;;5.70;99.90;;;;;;5069229;28;20273;-49
2022/01/24 05:36:24;;;;;;;33.50;18.40;;;5.70;99.90;;;;;;5061780;28;20253;-49
2022/01/24 05:38:51;;;;;;;30.83;17.03;;;5.70;99.90;;;;;;5067457;28;20203;-49
2022/01/24 05:41:18;;;;;;;33.10;17.80;;;5.70;99.90;;;;;;5066589;28;20279;-49
2022/01/24 05:43:46;;;;;;;32.27;17.53;;;5.70;99.90;;;;;;5063008;28;20326;-49
2022/01/24 05:46:12;;;;;;;36.97;17.77;;;5.80;99.90;;;;;;5057010;28;20204;-49
2022/01/24 05:48:39;;;;;;;31.97;16.33;;;5.80;99.90;;;;;;5074489;28;20530;-49
2022/01/24 05:51:06;;;;;;;33.60;16.70;;;5.80;99.90;;;;;;5067611;28;20207;-49
2022/01/24 05:53:34;;;;;;;32.20;17.40;;;5.80;99.90;;;;;;5081521;28;20232;-49
2022/01/24 05:56:01;;;;;;;29.93;16.33;;;5.80;99.90;;;;;;5061537;28;20754;-50
2022/01/24 05:58:28;;;;;;;27.90;16.20;;;5.80;99.90;;;;;;5055540;28;20357;-49
2022/01/24 06:00:55;;;;;;;32.43;16.43;;;5.70;99.90;;;;;;5062775;28;20200;-49
2022/01/24 06:03:22;;;;;;;33.97;17.40;;;5.70;99.90;;;;;;5055186;28;20289;-49
2022/01/24 06:05:49;;;;;;;30.77;16.47;;;5.70;99.90;;;;;;5056828;28;20487;-49
2022/01/24 06:08:16;;;;;;;30.93;17.27;;;5.70;99.90;;;;;;5077931;28;23215;-49
2022/01/24 06:10:45;;;;;;;30.97;17.13;;;5.70;99.90;;;;;;5065246;28;20278;-50
2022/01/24 06:13:12;;;;;;;32.30;16.50;;;5.70;99.90;;;;;;5068822;28;20328;-49
2022/01/24 06:15:39;;;;;;;29.60;16.33;;;5.80;99.90;;;;;;5046198;28;20563;-49
2022/01/24 06:18:05;;;;;;;26.47;15.10;;;5.80;99.90;;;;;;5050965;28;20211;-51
2022/01/24 06:20:32;;;;;;;34.77;16.97;;;5.80;99.90;;;;;;5063790;28;20288;-49
2022/01/24 06:22:59;;;;;;;28.97;16.80;;;5.80;99.90;;;;;;5079560;28;20593;-49
2022/01/24 06:25:28;;;;;;;30.17;17.00;;;5.70;99.90;;;;;;5075590;28;20436;-49
2022/01/24 06:27:56;;;;;;;30.90;15.17;;;5.70;99.90;;;;;;5071104;28;20470;-49
2022/01/24 06:30:24;;;;;;;31.33;15.47;;;5.70;99.90;;;;;;5071354;28;20278;-49
2022/01/24 06:32:50;;;;;;;28.20;15.90;;;5.70;99.90;;;;;;5072266;28;20298;-49
2022/01/24 06:35:17;;;;;;;28.47;14.77;;;5.70;99.90;;;;;;5077243;28;20218;-49
2022/01/24 06:37:44;;;;;;;30.57;16.57;;;5.70;99.90;;;;;;5071854;28;20633;-49
2022/01/24 06:40:12;;;;;;;30.17;15.60;;;5.80;99.90;;;;;;5068468;28;20379;-49
2022/01/24 06:42:39;;;;;;;33.50;17.10;;;5.70;99.90;;;;;;5078013;28;20680;-49
2022/01/24 06:45:08;;;;;;;36.27;17.70;;;5.70;99.90;;;;;;5062228;28;20288;-49
2022/01/24 06:47:35;;;;;;;30.03;17.37;;;5.80;99.90;;;;;;5070436;28;20499;-49
2022/01/24 06:50:03;;;;;;;35.77;19.57;;;5.70;99.90;;;;;;5084178;28;20537;-49
2022/01/24 06:52:30;;;;;;;36.87;18.93;;;5.80;99.90;;;;;;5069578;28;20366;-49
2022/01/24 06:54:56;;;;;;;36.70;20.53;;;5.70;99.90;;;;;;5074657;28;20588;-49
2022/01/24 06:57:24;;;;;;;34.90;19.10;;;5.70;99.90;;;;;;5061993;28;20235;-49
2022/01/24 06:59:51;;;;;;;34.13;20.03;;;5.70;99.90;;;;;;5058460;28;20322;-49
2022/01/24 07:02:19;;;;;;;39.03;20.53;;;5.70;99.90;;;;;;5079346;28;20281;-49
2022/01/24 07:04:46;;;;;;;38.53;21.07;;;5.70;99.90;;;;;;5069562;28;20314;-49
2022/01/24 07:07:14;;;;;;;36.07;19.47;;;5.70;99.90;;;;;;5056371;28;20213;-49
2022/01/24 07:09:42;;;;;;;37.73;20.20;;;5.70;99.90;;;;;;5080633;28;20301;-49
2022/01/24 07:12:10;;;;;;;40.27;21.17;;;5.70;99.90;;;;;;5070911;28;20742;-49
2022/01/24 07:14:37;;;;;;;39.53;21.10;;;5.80;99.90;;;;;;5060620;28;20227;-50
2022/01/24 07:17:13;;;;;;;40.73;22.03;;;5.70;99.90;;;;;;5080476;28;20305;-49
2022/01/24 07:19:41;;;;;;;47.40;22.20;;;5.70;99.90;;;;;;5061761;28;20310;-49
2022/01/24 07:22:08;;;;;;;40.40;22.23;;;5.80;99.90;;;;;;5062537;28;20254;-49
2022/01/24 07:24:37;;;;;;;36.50;21.40;;;5.70;99.90;;;;;;5079042;28;20250;-49
2022/01/24 07:27:04;;;;;;;37.43;22.60;;;5.70;99.90;;;;;;5070567;28;20275;-49
2022/01/24 07:29:32;;;;;;;41.27;22.07;;;5.70;99.90;;;;;;5073588;28;20193;-49
2022/01/24 07:31:59;;;;;;;41.50;23.30;;;5.70;99.90;;;;;;5065051;28;20415;-49
2022/01/24 07:34:26;;;;;;;36.47;20.97;;;5.70;99.90;;;;;;5074796;28;20227;-49
2022/01/24 07:36:55;;;;;;;36.77;22.03;;;5.70;99.90;;;;;;5068882;28;20441;-49
2022/01/24 07:39:23;;;;;;;43.23;22.80;;;5.70;99.90;;;;;;5072182;28;20208;-49
2022/01/24 07:41:51;;;;;;;42.20;21.60;;;5.70;99.90;;;;;;5076855;28;20298;-49
2022/01/24 07:44:21;;;;;;;42.50;23.67;;;5.70;99.90;;;;;;5080259;28;20228;-49
2022/01/24 07:46:48;;;;;;;35.33;21.30;;;5.70;99.90;;;;;;5053996;28;20206;-49
2022/01/24 07:49:15;;;;;;;43.13;23.83;;;5.80;99.90;;;;;;5080707;28;20211;-49
2022/01/24 07:51:43;;;;;;;43.60;24.17;;;5.70;99.90;;;;;;5061513;28;20208;-49
2022/01/24 07:54:12;;;;;;;41.77;23.03;;;5.70;99.90;;;;;;5062147;28;20259;-49
2022/01/24 07:56:39;;;;;;;42.23;21.87;;;5.70;99.90;;;;;;5068609;28;21625;-49
2022/01/24 07:59:06;;;;;;;41.27;22.97;;;5.70;99.90;;;;;;5078106;28;20287;-49
2022/01/24 08:01:33;;;;;;;38.90;22.40;;;5.70;99.90;;;;;;5054106;28;20214;-49
2022/01/24 08:04:00;;;;;;;45.03;24.17;;;5.70;99.90;;;;;;5073032;28;20255;-49
2022/01/24 08:06:27;;;;;;;38.93;22.20;;;5.70;99.90;;;;;;5073235;28;20210;-50
2022/01/24 08:08:54;;;;;;;39.93;22.30;;;5.70;99.90;;;;;;5075309;28;20215;-49
2022/01/24 08:11:23;;;;;;;51.67;23.63;;;5.70;99.90;;;;;;5070468;28;20217;-51
2022/01/24 08:13:51;;;;;;;44.60;22.70;;;5.70;99.90;;;;;;5067908;28;20530;-49
2022/01/24 08:16:18;;;;;;;46.60;25.27;;;5.70;99.90;;;;;;5082196;28;20230;-49
2022/01/24 08:18:50;;;;;;;47.60;22.83;;;5.70;99.90;;;;;;5036148;28;20420;-49
2022/01/24 08:21:17;;;;;;;42.27;22.70;;;5.70;99.90;;;;;;5078530;28;20219;-50
2022/01/24 08:23:44;;;;;;;40.10;22.77;;;5.70;99.90;;;;;;5066832;28;20282;-49
2022/01/24 08:26:10;;;;;;;41.63;22.83;;;5.70;99.90;;;;;;5065033;28;20445;-49
2022/01/24 08:28:39;;;;;;;40.97;22.17;;;5.60;99.90;;;;;;5073053;28;20275;-49
2022/01/24 08:31:05;;;;;;;46.10;23.93;;;5.60;99.90;;;;;;5077841;28;20312;-49
2022/01/24 08:33:33;;;;;;;40.40;23.73;;;5.60;99.90;;;;;;5059382;28;20259;-49
2022/01/24 08:36:00;;;;;;;41.60;21.60;;;5.60;99.90;;;;;;5077631;28;20534;-49
2022/01/24 08:38:29;;;;;;;42.73;23.87;;;5.60;99.90;;;;;;5067012;28;20414;-49
2022/01/24 08:41:04;;;;;;;45.67;23.00;;;5.70;99.90;;;;;;5075766;28;20620;-49
2022/01/24 08:43:40;;;;;;;47.60;22.87;;;5.60;99.90;;;;;;5084514;28;20230;-49
2022/01/24 08:46:08;;;;;;;42.93;22.40;;;5.60;99.90;;;;;;5079783;28;20335;-48
2022/01/24 08:48:35;;;;;;;42.57;21.73;;;5.60;99.90;;;;;;5061190;28;20410;-49
2022/01/24 08:51:02;;;;;;;42.70;21.30;;;5.70;99.90;;;;;;5074708;28;20227;-49
2022/01/24 08:53:31;;;;;;;39.27;21.83;;;5.60;99.90;;;;;;5062856;28;20242;-49
2022/01/24 08:55:59;;;;;;;37.77;21.00;;;5.60;99.90;;;;;;5070830;28;20576;-49
2022/01/24 08:58:26;;;;;;;39.93;20.20;;;5.60;99.90;;;;;;5084033;28;20284;-49
2022/01/24 09:00:54;;;;;;;39.27;19.80;;;5.50;99.90;;;;;;5080133;28;20203;-49
2022/01/24 09:03:22;;;;;;;42.17;20.57;;;5.50;99.90;;;;;;5078737;28;20290;-48
2022/01/24 09:05:52;;;;;;;35.47;19.83;;;5.50;99.90;;;;;;5061243;28;20205;-49
2022/01/24 09:08:22;;;;;;;38.93;20.80;;;5.50;99.90;;;;;;5073910;28;20400;-49
2022/01/24 09:10:50;;;;;;;35.83;19.70;;;5.50;99.90;;;;;;5073483;28;20235;-49
2022/01/24 09:13:19;;;;;;;36.20;19.70;;;5.50;99.90;;;;;;5066009;28;20329;-49
2022/01/24 09:15:45;;;;;;;36.87;20.10;;;5.50;99.90;;;;;;5080805;28;20204;-49
2022/01/24 09:18:12;;;;;;;36.50;18.97;;;5.50;99.90;;;;;;5074392;28;20716;-49
2022/01/24 09:20:41;;;;;;;34.23;19.17;;;5.40;99.90;;;;;;5066853;28;20260;-49
2022/01/24 09:23:09;;;;;;;37.00;19.63;;;5.40;99.90;;;;;;5082345;28;20228;-48
2022/01/24 09:25:37;;;;;;;35.60;18.50;;;5.40;99.90;;;;;;5074999;28;20211;-49
2022/01/24 09:28:04;;;;;;;40.00;20.13;;;5.40;99.90;;;;;;5072923;28;20393;-49
2022/01/24 09:30:31;;;;;;;37.80;19.60;;;5.40;99.90;;;;;;5085489;28;20212;-49
2022/01/24 09:32:58;;;;;;;34.77;19.53;;;5.40;99.90;;;;;;5080690;28;20565;-49
2022/01/24 09:35:27;;;;;;;35.47;19.30;;;5.40;99.90;;;;;;5074109;28;20463;-49
2022/01/24 09:37:55;;;;;;;34.97;18.43;;;5.40;99.90;;;;;;5086325;28;20223;-50
2022/01/24 09:40:23;;;;;;;35.37;18.90;;;5.40;99.90;;;;;;5074158;28;20224;-49
2022/01/24 09:42:50;;;;;;;31.67;18.83;;;5.40;99.90;;;;;;5076283;28;20265;-48
2022/01/24 09:45:18;;;;;;;32.57;19.07;;;5.40;99.90;;;;;;5085495;28;20320;-49
2022/01/24 09:47:46;;;;;;;33.80;18.63;;;5.40;99.90;;;;;;5086869;28;20275;-48
2022/01/24 09:50:15;;;;;;;38.77;19.80;;;5.30;99.90;;;;;;5075684;28;20395;-48
2022/01/24 09:52:45;;;;;;;30.87;18.87;;;5.40;99.90;;;;;;5073222;28;20234;-48
2022/01/24 09:55:14;;;;;;;36.97;18.93;;;5.40;99.90;;;;;;5073713;28;20312;-49
2022/01/24 09:57:42;;;;;;;31.30;18.43;;;5.40;99.90;;;;;;5090432;28;20627;-49
2022/01/24 10:00:13;;;;;;;31.73;17.97;;;5.40;99.90;;;;;;5073004;28;20575;-49
2022/01/24 10:02:40;;;;;;;33.63;18.60;;;5.40;99.90;;;;;;5083396;28;20294;-49
2022/01/24 10:05:15;;;;;;;40.17;19.57;;;5.40;99.90;;;;;;5070739;28;20404;-49
2022/01/24 10:07:49;;;;;;;33.33;18.13;;;5.40;99.90;;;;;;5069543;28;20230;-48
2022/01/24 10:10:27;;;;;;;32.67;18.00;;;5.40;99.90;;;;;;5081446;28;20306;-49
2022/01/24 10:18:28;;;;;;;32.97;19.33;;;5.50;99.90;;;;;;5084254;28;20269;-48
2022/01/24 10:20:54;;;;;;;33.83;19.47;;;5.50;99.90;;;;;;5063548;28;20291;-49
2022/01/24 10:23:24;;;;;;;31.90;18.40;;;5.60;99.90;;;;;;5062142;28;20246;-49
2022/01/24 10:26:03;;;;;;;31.97;19.53;;;5.60;99.90;;;;;;5068411;28;20282;-49
2022/01/24 10:28:32;;;;;;;34.27;19.77;;;5.60;99.90;;;;;;5070540;28;20204;-49
2022/01/24 10:31:08;;;;;;;41.47;21.67;;;5.50;99.90;;;;;;5070828;28;20212;-49
2022/01/24 10:33:55;;;;;;;37.57;20.83;;;5.50;99.90;;;;;;5083527;28;20291;-49
2022/01/24 10:36:37;;;;;;;37.93;19.57;;;5.50;99.90;;;;;;5079127;28;20223;-49
2022/01/24 10:39:13;;;;;;;37.30;19.87;;;5.50;99.90;;;;;;5069958;28;20365;-49
2022/01/24 10:41:56;;;;;;;35.07;19.83;;;5.50;99.90;;;;;;5077319;28;20214;-49
2022/01/24 10:44:34;;;;;;;35.80;19.23;;;5.60;99.90;;;;;;5081758;28;20223;-49
2022/01/24 10:47:22;;;;;;;35.37;18.83;;;5.60;99.90;;;;;;5069849;28;20357;-49
2022/01/24 10:49:49;;;;;;;30.33;18.50;;;5.60;99.90;;;;;;5085964;28;20449;-49
2022/01/24 10:52:18;;;;;;;33.57;19.27;;;5.60;99.90;;;;;;5081697;28;20639;-49
2022/01/24 10:54:45;;;;;;;35.87;20.60;;;5.60;99.90;;;;;;5077567;28;20204;-49
2022/01/24 10:57:23;;;;;;;44.50;20.47;;;5.60;99.90;;;;;;5053215;28;20234;-51
2022/01/24 10:59:51;;;;;;;35.90;20.30;;;5.60;99.90;;;;;;5084489;28;20228;-48
2022/01/24 11:02:18;;;;;;;31.93;19.93;;;5.60;99.90;;;;;;5073406;28;20642;-49
2022/01/24 11:04:45;;;;;;;39.20;21.30;;;5.60;99.90;;;;;;5085329;28;20204;-48
2022/01/24 11:07:12;;;;;;;37.37;20.00;;;5.50;99.90;;;;;;5084593;28;20227;-49
2022/01/24 11:09:41;;;;;;;35.40;19.63;;;5.60;99.90;;;;;;5085982;28;20576;-49
2022/01/24 11:12:11;;;;;;;32.97;19.40;;;5.60;99.90;;;;;;5053515;28;20741;-49
2022/01/24 11:14:41;;;;;;;34.87;19.87;;;5.60;99.90;;;;;;5073577;28;20228;-49
2022/01/24 11:17:09;;;;;;;36.00;20.90;;;5.60;99.90;;;;;;5069217;28;20647;-49
2022/01/24 11:19:41;;;;;;;34.47;19.40;;;5.70;99.90;;;;;;5079751;28;20200;-49
2022/01/24 11:22:19;;;;;;;40.07;21.13;;;5.70;99.90;;;;;;5081367;28;20196;-49
2022/01/24 11:24:52;;;;;;;37.77;21.00;;;5.70;99.90;;;;;;5076295;28;20196;-49
2022/01/24 11:27:19;;;;;;;37.10;21.07;;;5.60;99.90;;;;;;5055041;28;20212;-49
2022/01/24 11:29:50;;;;;;;38.67;20.47;;;5.60;99.90;;;;;;5070814;28;20208;-49
2022/01/24 11:32:23;;;;;;;37.17;21.30;;;5.70;99.90;;;;;;5069378;28;20227;-49
2022/01/24 11:34:52;;;;;;;37.70;21.23;;;5.60;99.90;;;;;;5075522;28;20204;-49
2022/01/24 11:37:36;;;;;;;37.77;20.77;;;5.60;99.90;;;;;;5080364;28;20295;-49
2022/01/24 11:40:05;;;;;;;37.17;21.13;;;5.60;99.90;;;;;;5074883;28;20344;-48
2022/01/24 11:42:36;;;;;;;35.33;20.27;;;5.60;99.90;;;;;;5061408;28;20519;-49
2022/01/24 11:45:10;;;;;;;38.40;21.27;;;5.60;99.90;;;;;;5071164;28;20212;-48
2022/01/24 11:47:38;;;;;;;36.70;20.67;;;5.60;99.90;;;;;;5072931;28;20199;-49
2022/01/24 11:50:31;;;;;;;34.80;18.97;;;5.60;99.90;;;;;;5082459;28;20217;-48
2022/01/24 11:52:59;;;;;;;38.27;21.40;;;5.60;99.90;;;;;;5073466;28;20848;-49
2022/01/24 11:55:36;;;;;;;40.67;21.20;;;5.70;99.90;;;;;;5052323;28;20214;-49
2022/01/24 11:58:05;;;;;;;33.87;19.33;;;5.60;99.90;;;;;;5065280;28;20268;-49
2022/01/24 12:00:39;;;;;;;39.93;21.23;;;5.60;99.90;;;;;;5045423;28;20836;-49
2022/01/24 12:03:17;;;;;;;39.30;21.63;;;5.60;99.90;;;;;;5070389;28;20231;-48
2022/01/24 12:05:45;;;;;;;38.07;21.13;;;5.60;99.90;;;;;;5080854;28;21303;-49
2022/01/24 12:08:27;;;;;;;39.30;21.03;;;5.70;99.90;;;;;;5078444;28;20204;-49
2022/01/24 12:10:58;;;;;;;33.73;19.13;;;5.70;99.90;;;;;;5079003;28;20204;-49
2022/01/24 12:13:28;;;;;;;36.07;20.83;;;5.70;99.90;;;;;;5065726;28;20228;-49
2022/01/24 12:16:03;;;;;;;32.90;19.60;;;5.70;99.90;;;;;;5061753;28;20214;-49
2022/01/24 12:19:00;;;;;;;39.00;21.30;;;5.70;99.90;;;;;;5059356;28;20954;-49
2022/01/24 12:21:33;;;;;;;36.20;20.80;;;5.70;99.90;;;;;;5060975;28;20340;-49
2022/01/24 12:24:03;;;;;;;34.90;19.90;;;5.70;99.90;;;;;;5081120;28;20259;-48
2022/01/24 12:26:36;;;;;;;40.10;21.00;;;5.70;99.90;;;;;;5078970;28;20271;-49
2022/01/24 12:29:06;;;;;;;33.27;19.57;;;5.70;99.90;;;;;;5063727;28;20539;-48
2022/01/24 12:31:42;;;;;;;34.33;19.20;;;5.70;99.90;;;;;;5052509;28;20313;-49
2022/01/24 12:34:27;;;;;;;33.80;19.87;;;5.70;99.90;;;;;;5073972;28;20251;-49
2022/01/24 12:37:13;;;;;;;35.47;19.77;;;5.70;99.90;;;;;;5079754;28;20241;-49
2022/01/24 12:39:53;;;;;;;34.83;19.53;;;5.70;99.90;;;;;;5079418;28;20200;-49
2022/01/24 12:42:33;;;;;;;34.27;19.80;;;5.70;99.90;;;;;;5081685;28;20471;-49
2022/01/24 12:47:57;;;;;;;35.27;19.77;;;5.70;99.90;;;;;;5066145;28;20269;-48
2022/01/24 12:50:24;;;;;;;30.53;17.70;;;5.60;99.90;;;;;;5057239;28;20215;-49
2022/01/24 12:52:53;;;;;;;31.27;19.13;;;5.60;99.90;;;;;;5080341;28;20501;-49
2022/01/24 12:55:20;;;;;;;34.90;19.43;;;5.60;99.90;;;;;;5079729;28;20226;-49
2022/01/24 12:57:46;;;;;;;31.80;19.13;;;5.60;99.90;;;;;;5071567;28;20534;-48
2022/01/24 13:00:15;;;;;;;35.07;18.40;;;5.60;99.90;;;;;;5073061;28;20210;-49
2022/01/24 13:02:42;;;;;;;35.17;18.93;;;5.70;99.90;;;;;;5047240;28;20437;-49
2022/01/24 13:05:13;;;;;;;34.17;18.77;;;5.60;99.90;;;;;;5069956;28;20298;-49
2022/01/24 13:07:41;;;;;;;34.77;18.63;;;5.60;99.90;;;;;;5068994;28;20236;-49
2022/01/24 13:10:15;;;;;;;33.07;18.57;;;5.70;99.90;;;;;;5080700;28;20338;-49
2022/01/24 13:12:43;;;;;;;39.70;17.40;;;5.70;99.90;;;;;;5070870;28;20540;-49
2022/01/24 13:15:24;;;;;;;32.57;18.53;;;5.70;99.90;;;;;;5079926;28;20621;-49
2022/01/24 13:23:27;;;;;;;31.40;18.90;;;5.70;99.90;;;;;;5067719;28;20273;-49
2022/01/24 13:25:54;;;;;;;34.10;18.80;;;5.70;99.90;;;;;;5064965;28;20227;-49
2022/01/24 13:28:21;;;;;;;31.73;17.20;;;5.70;99.90;;;;;;5076457;28;20329;-49
2022/01/24 13:30:51;;;;;;;27.13;17.60;;;5.70;99.90;;;;;;5055887;28;20211;-49
2022/01/24 13:33:20;;;;;;;28.10;17.13;;;5.70;99.90;;;;;;5044696;28;20277;-49
2022/01/24 13:35:50;;;;;;;34.97;17.80;;;5.70;99.90;;;;;;5041378;28;20283;-49
2022/01/24 13:38:20;;;;;;;31.20;17.57;;;5.70;99.90;;;;;;5064435;28;20759;-49
2022/01/24 13:40:54;;;;;;;27.90;17.40;;;5.70;99.90;;;;;;5083414;28;20284;-49
2022/01/24 13:43:35;;;;;;;28.10;17.40;;;5.70;99.90;;;;;;5061611;28;20558;-49
2022/01/24 13:46:04;;;;;;;31.83;17.23;;;5.70;99.90;;;;;;5075263;28;20204;-49
2022/01/24 13:48:39;;;;;;;31.03;17.97;;;5.70;99.90;;;;;;5051901;28;20307;-49
2022/01/24 13:51:08;;;;;;;32.33;17.97;;;5.70;99.90;;;;;;5055128;28;20207;-49
2022/01/24 13:53:37;;;;;;;31.20;17.43;;;5.70;99.90;;;;;;5068101;28;20224;-49
2022/01/24 13:56:26;;;;;;;29.77;17.90;;;5.80;99.90;;;;;;5059646;28;20207;-49
2022/01/24 13:59:11;;;;;;;28.13;18.33;;;5.70;99.90;;;;;;5066563;28;20211;-50
2022/01/24 14:01:39;;;;;;;28.40;18.33;;;5.60;99.90;;;;;;5069237;28;20801;-49
2022/01/24 14:04:08;;;;;;;30.07;18.00;;;5.60;99.90;;;;;;5059980;28;20238;-49